Vremea mâine în Baraolt - Romania

Vrei sa afli care e starea vremii acum in Covasna - Romania? Dorim sa iti furnizam starea vremii pentru Covasna - Romania. Starea vremii Covasna - Romania pentru astazi.

Vremea mâine în Baraolt

Temperatura minimă:
3.9 °C

Temperatura maximă:
20.4 °C

Mâine va fi: Senin
Precipitații: 0 %
Umiditate: 69%
Viteza maximă vânt mâine:
9.7 km/h

Evoluția vremii in Baraolt pe ore mâine

Ora: 04:00
Temperatura: °C
Sansa de precipitatii: %
Ora Descriere Temp Se simte Precipitatii Umiditate Vant
00:00Senin6.3°6.3°0%87%ENE 1.8 KM/H
01:00Senin5.8°5.8°0%88%E 2.9 KM/H
02:00Senin5.4°5.4°0%89%E 2.5 KM/H
03:00Senin4.9°4.9°0%90%E 2.2 KM/H
04:00Senin4.5°4.5°0%90%E 2.2 KM/H
05:00Senin4.2°4.2°0%90%E 2.5 KM/H
06:00Senin3.9°3.9°0%90%E 2.5 KM/H
07:00Senin5.5°5.5°0%89%E 2.5 KM/H
08:00Senin9.8°9.8°0%82%ENE 2.2 KM/H
09:00Senin12.2°12.2°0%74%NE 1.8 KM/H
10:00Senin14.6°14.6°0%66%ENE 1.4 KM/H
11:00Senin16.8°16.9°0%56%ENE 2.2 KM/H
12:00Senin18.2°18.2°0%47%E 3.2 KM/H
13:00Senin19°19°0%43%ESE 3.6 KM/H
14:00Senin19.7°19.7°0%40%ESE 3.6 KM/H
15:00Senin20.2°20.2°0%38%E 4.3 KM/H
16:00Senin20.4°20.4°0%37%ENE 6.1 KM/H
17:00Senin20.3°20.3°0%37%E 8.6 KM/H
18:00Senin19.6°19.6°0%44%E 9.7 KM/H
19:00Senin17.1°17.1°0%58%ESE 9.7 KM/H
20:00Senin12.3°11.4°0%70%ESE 9.7 KM/H
21:00Senin9.5°8.5°0%79%SE 7.9 KM/H
22:00Senin8.3°7.3°0%85%ESE 6.8 KM/H
23:00Senin7.6°6.6°0%87%ESE 6.1 KM/H




tutorials